sensor_id;sensor_type;location;lat;lon;timestamp;P1;durP1;ratioP1;P2;durP2;ratioP2
45694;SDS011;31408;45.468;9.124;2024-01-27T00:01:34;73.80;;;38.92;;
45694;SDS011;31408;45.468;9.124;2024-01-27T00:04:00;72.63;;;43.70;;
45694;SDS011;31408;45.468;9.124;2024-01-27T00:06:25;76.78;;;42.80;;
45694;SDS011;31408;45.468;9.124;2024-01-27T00:08:51;71.25;;;39.40;;
45694;SDS011;31408;45.468;9.124;2024-01-27T00:11:16;77.97;;;42.38;;
45694;SDS011;31408;45.468;9.124;2024-01-27T00:13:42;80.05;;;43.42;;
45694;SDS011;31408;45.468;9.124;2024-01-27T00:16:08;80.80;;;44.63;;
45694;SDS011;31408;45.468;9.124;2024-01-27T00:18:35;76.32;;;43.30;;
45694;SDS011;31408;45.468;9.124;2024-01-27T00:21:00;77.97;;;44.13;;
45694;SDS011;31408;45.468;9.124;2024-01-27T00:23:26;69.90;;;44.33;;
45694;SDS011;31408;45.468;9.124;2024-01-27T00:25:51;80.35;;;42.60;;
45694;SDS011;31408;45.468;9.124;2024-01-27T00:28:16;73.95;;;41.20;;
45694;SDS011;31408;45.468;9.124;2024-01-27T00:30:42;70.97;;;42.00;;
45694;SDS011;31408;45.468;9.124;2024-01-27T00:33:07;72.53;;;41.65;;
45694;SDS011;31408;45.468;9.124;2024-01-27T00:35:32;83.03;;;43.90;;
45694;SDS011;31408;45.468;9.124;2024-01-27T00:37:58;75.00;;;42.47;;
45694;SDS011;31408;45.468;9.124;2024-01-27T00:40:23;73.20;;;41.58;;
45694;SDS011;31408;45.468;9.124;2024-01-27T00:42:48;65.32;;;39.33;;
45694;SDS011;31408;45.468;9.124;2024-01-27T00:45:14;73.90;;;41.13;;
45694;SDS011;31408;45.468;9.124;2024-01-27T00:47:39;78.47;;;41.35;;
45694;SDS011;31408;45.468;9.124;2024-01-27T00:50:05;80.15;;;40.63;;
45694;SDS011;31408;45.468;9.124;2024-01-27T00:52:31;71.07;;;37.38;;
45694;SDS011;31408;45.468;9.124;2024-01-27T00:54:56;73.07;;;37.25;;
45694;SDS011;31408;45.468;9.124;2024-01-27T00:57:21;66.70;;;36.78;;
45694;SDS011;31408;45.468;9.124;2024-01-27T00:59:47;65.97;;;39.83;;
45694;SDS011;31408;45.468;9.124;2024-01-27T01:02:12;82.18;;;42.40;;
45694;SDS011;31408;45.468;9.124;2024-01-27T01:04:37;67.40;;;38.63;;
45694;SDS011;31408;45.468;9.124;2024-01-27T01:07:03;67.55;;;38.83;;
45694;SDS011;31408;45.468;9.124;2024-01-27T01:09:30;77.13;;;41.25;;
45694;SDS011;31408;45.468;9.124;2024-01-27T01:11:56;71.75;;;41.42;;
45694;SDS011;31408;45.468;9.124;2024-01-27T01:14:21;67.97;;;38.10;;
45694;SDS011;31408;45.468;9.124;2024-01-27T01:16:46;72.53;;;35.30;;
45694;SDS011;31408;45.468;9.124;2024-01-27T01:19:12;83.00;;;42.40;;
45694;SDS011;31408;45.468;9.124;2024-01-27T01:21:37;74.45;;;38.10;;
45694;SDS011;31408;45.468;9.124;2024-01-27T01:24:02;83.00;;;40.90;;
45694;SDS011;31408;45.468;9.124;2024-01-27T01:26:28;71.78;;;38.33;;
45694;SDS011;31408;45.468;9.124;2024-01-27T01:28:53;72.20;;;40.63;;
45694;SDS011;31408;45.468;9.124;2024-01-27T01:31:23;67.30;;;41.00;;
45694;SDS011;31408;45.468;9.124;2024-01-27T01:33:49;75.30;;;39.72;;
45694;SDS011;31408;45.468;9.124;2024-01-27T01:36:14;71.68;;;38.90;;
45694;SDS011;31408;45.468;9.124;2024-01-27T01:38:39;71.68;;;41.95;;
45694;SDS011;31408;45.468;9.124;2024-01-27T01:41:05;67.80;;;39.78;;
45694;SDS011;31408;45.468;9.124;2024-01-27T01:43:31;69.43;;;41.35;;
45694;SDS011;31408;45.468;9.124;2024-01-27T01:45:56;75.82;;;43.72;;
45694;SDS011;31408;45.468;9.124;2024-01-27T01:48:21;78.20;;;42.58;;
45694;SDS011;31408;45.468;9.124;2024-01-27T01:50:47;78.13;;;41.72;;
45694;SDS011;31408;45.468;9.124;2024-01-27T01:53:13;81.30;;;45.15;;
45694;SDS011;31408;45.468;9.124;2024-01-27T01:55:38;72.55;;;42.88;;
45694;SDS011;31408;45.468;9.124;2024-01-27T01:58:04;72.55;;;41.38;;
45694;SDS011;31408;45.468;9.124;2024-01-27T02:00:30;74.68;;;42.20;;
45694;SDS011;31408;45.468;9.124;2024-01-27T02:02:55;76.78;;;45.22;;
45694;SDS011;31408;45.468;9.124;2024-01-27T02:05:20;71.78;;;41.20;;
45694;SDS011;31408;45.468;9.124;2024-01-27T02:07:46;68.18;;;39.15;;
45694;SDS011;31408;45.468;9.124;2024-01-27T02:10:15;89.55;;;44.67;;
45694;SDS011;31408;45.468;9.124;2024-01-27T02:12:43;62.45;;;40.45;;
45694;SDS011;31408;45.468;9.124;2024-01-27T02:15:09;73.88;;;41.22;;
45694;SDS011;31408;45.468;9.124;2024-01-27T02:17:35;70.80;;;40.70;;
45694;SDS011;31408;45.468;9.124;2024-01-27T02:20:01;68.72;;;40.90;;
45694;SDS011;31408;45.468;9.124;2024-01-27T02:22:26;71.60;;;38.72;;
45694;SDS011;31408;45.468;9.124;2024-01-27T02:24:51;70.88;;;40.47;;
45694;SDS011;31408;45.468;9.124;2024-01-27T02:27:17;73.18;;;39.83;;
45694;SDS011;31408;45.468;9.124;2024-01-27T02:29:42;76.63;;;42.35;;
45694;SDS011;31408;45.468;9.124;2024-01-27T02:32:08;66.20;;;37.50;;
45694;SDS011;31408;45.468;9.124;2024-01-27T02:34:34;72.15;;;39.45;;
45694;SDS011;31408;45.468;9.124;2024-01-27T02:36:59;65.80;;;35.65;;
45694;SDS011;31408;45.468;9.124;2024-01-27T02:39:25;65.18;;;36.13;;
45694;SDS011;31408;45.468;9.124;2024-01-27T02:41:50;63.53;;;37.08;;
45694;SDS011;31408;45.468;9.124;2024-01-27T02:44:15;80.55;;;38.38;;
45694;SDS011;31408;45.468;9.124;2024-01-27T02:46:41;62.83;;;36.70;;
45694;SDS011;31408;45.468;9.124;2024-01-27T02:49:07;69.63;;;37.58;;
45694;SDS011;31408;45.468;9.124;2024-01-27T02:51:33;71.03;;;36.97;;
45694;SDS011;31408;45.468;9.124;2024-01-27T02:53:58;62.38;;;35.10;;
45694;SDS011;31408;45.468;9.124;2024-01-27T02:56:23;68.65;;;37.92;;
45694;SDS011;31408;45.468;9.124;2024-01-27T02:58:49;63.05;;;34.67;;
45694;SDS011;31408;45.468;9.124;2024-01-27T03:01:14;64.85;;;38.78;;
45694;SDS011;31408;45.468;9.124;2024-01-27T03:03:40;61.47;;;34.22;;
45694;SDS011;31408;45.468;9.124;2024-01-27T03:06:05;64.90;;;35.00;;
45694;SDS011;31408;45.468;9.124;2024-01-27T03:08:30;63.17;;;32.75;;
45694;SDS011;31408;45.468;9.124;2024-01-27T03:10:56;63.03;;;33.00;;
45694;SDS011;31408;45.468;9.124;2024-01-27T03:13:21;64.18;;;35.28;;
45694;SDS011;31408;45.468;9.124;2024-01-27T03:15:47;63.22;;;33.45;;
45694;SDS011;31408;45.468;9.124;2024-01-27T03:18:12;56.03;;;32.28;;
45694;SDS011;31408;45.468;9.124;2024-01-27T03:20:37;63.70;;;37.88;;
45694;SDS011;31408;45.468;9.124;2024-01-27T03:23:03;63.60;;;36.33;;
45694;SDS011;31408;45.468;9.124;2024-01-27T03:25:28;65.88;;;37.05;;
45694;SDS011;31408;45.468;9.124;2024-01-27T03:27:54;61.13;;;33.60;;
45694;SDS011;31408;45.468;9.124;2024-01-27T03:30:19;58.45;;;33.15;;
45694;SDS011;31408;45.468;9.124;2024-01-27T03:32:44;54.33;;;30.55;;
45694;SDS011;31408;45.468;9.124;2024-01-27T03:35:10;63.53;;;33.28;;
45694;SDS011;31408;45.468;9.124;2024-01-27T03:37:35;61.25;;;32.80;;
45694;SDS011;31408;45.468;9.124;2024-01-27T03:40:01;60.80;;;33.15;;
45694;SDS011;31408;45.468;9.124;2024-01-27T03:42:26;58.47;;;31.20;;
45694;SDS011;31408;45.468;9.124;2024-01-27T03:44:52;59.08;;;33.15;;
45694;SDS011;31408;45.468;9.124;2024-01-27T03:47:17;56.97;;;30.38;;
45694;SDS011;31408;45.468;9.124;2024-01-27T03:49:43;60.03;;;32.35;;
45694;SDS011;31408;45.468;9.124;2024-01-27T03:52:08;60.28;;;30.85;;
45694;SDS011;31408;45.468;9.124;2024-01-27T03:54:33;60.60;;;31.20;;
45694;SDS011;31408;45.468;9.124;2024-01-27T03:56:59;56.67;;;29.67;;
45694;SDS011;31408;45.468;9.124;2024-01-27T03:59:24;66.07;;;32.78;;
45694;SDS011;31408;45.468;9.124;2024-01-27T04:01:49;60.50;;;34.78;;
45694;SDS011;31408;45.468;9.124;2024-01-27T04:04:15;54.35;;;29.55;;
45694;SDS011;31408;45.468;9.124;2024-01-27T04:06:40;50.83;;;32.42;;
45694;SDS011;31408;45.468;9.124;2024-01-27T04:09:06;54.75;;;30.67;;
45694;SDS011;31408;45.468;9.124;2024-01-27T04:11:34;61.65;;;30.55;;
45694;SDS011;31408;45.468;9.124;2024-01-27T04:14:00;67.97;;;33.75;;
45694;SDS011;31408;45.468;9.124;2024-01-27T04:16:27;55.33;;;31.35;;
45694;SDS011;31408;45.468;9.124;2024-01-27T04:18:52;63.13;;;33.25;;
45694;SDS011;31408;45.468;9.124;2024-01-27T04:21:17;66.88;;;32.65;;
45694;SDS011;31408;45.468;9.124;2024-01-27T04:23:43;55.72;;;30.70;;
45694;SDS011;31408;45.468;9.124;2024-01-27T04:26:08;62.50;;;32.78;;
45694;SDS011;31408;45.468;9.124;2024-01-27T04:28:34;63.20;;;31.40;;
45694;SDS011;31408;45.468;9.124;2024-01-27T04:31:00;55.92;;;30.88;;
45694;SDS011;31408;45.468;9.124;2024-01-27T04:33:25;57.15;;;32.17;;
45694;SDS011;31408;45.468;9.124;2024-01-27T04:35:50;50.20;;;27.75;;
45694;SDS011;31408;45.468;9.124;2024-01-27T04:38:17;54.97;;;29.00;;
45694;SDS011;31408;45.468;9.124;2024-01-27T04:40:42;55.45;;;30.02;;
45694;SDS011;31408;45.468;9.124;2024-01-27T04:43:07;57.03;;;33.72;;
45694;SDS011;31408;45.468;9.124;2024-01-27T04:45:33;60.53;;;28.83;;
45694;SDS011;31408;45.468;9.124;2024-01-27T04:47:58;50.20;;;30.70;;
45694;SDS011;31408;45.468;9.124;2024-01-27T04:50:26;54.15;;;31.48;;
45694;SDS011;31408;45.468;9.124;2024-01-27T04:52:51;57.15;;;32.55;;
45694;SDS011;31408;45.468;9.124;2024-01-27T04:55:16;54.90;;;28.15;;
45694;SDS011;31408;45.468;9.124;2024-01-27T04:57:42;53.83;;;29.15;;
45694;SDS011;31408;45.468;9.124;2024-01-27T05:00:07;56.03;;;28.73;;
45694;SDS011;31408;45.468;9.124;2024-01-27T05:02:38;49.35;;;29.30;;
45694;SDS011;31408;45.468;9.124;2024-01-27T05:05:04;48.60;;;30.35;;
45694;SDS011;31408;45.468;9.124;2024-01-27T05:07:29;49.63;;;28.27;;
45694;SDS011;31408;45.468;9.124;2024-01-27T05:10:00;50.42;;;30.23;;
45694;SDS011;31408;45.468;9.124;2024-01-27T05:12:25;52.72;;;27.35;;
45694;SDS011;31408;45.468;9.124;2024-01-27T05:14:51;55.58;;;31.48;;
45694;SDS011;31408;45.468;9.124;2024-01-27T05:17:16;51.75;;;27.75;;
45694;SDS011;31408;45.468;9.124;2024-01-27T05:19:41;53.45;;;31.98;;
45694;SDS011;31408;45.468;9.124;2024-01-27T05:22:07;57.45;;;29.30;;
45694;SDS011;31408;45.468;9.124;2024-01-27T05:24:32;47.83;;;28.45;;
45694;SDS011;31408;45.468;9.124;2024-01-27T05:26:58;63.33;;;33.63;;
45694;SDS011;31408;45.468;9.124;2024-01-27T05:29:24;57.22;;;30.40;;
45694;SDS011;31408;45.468;9.124;2024-01-27T05:31:49;50.35;;;27.15;;
45694;SDS011;31408;45.468;9.124;2024-01-27T05:34:14;56.22;;;29.75;;
45694;SDS011;31408;45.468;9.124;2024-01-27T05:36:40;53.83;;;30.13;;
45694;SDS011;31408;45.468;9.124;2024-01-27T05:39:05;56.25;;;28.48;;
45694;SDS011;31408;45.468;9.124;2024-01-27T05:41:31;59.63;;;31.33;;
45694;SDS011;31408;45.468;9.124;2024-01-27T05:43:57;64.10;;;31.88;;
45694;SDS011;31408;45.468;9.124;2024-01-27T05:46:23;59.40;;;30.48;;
45694;SDS011;31408;45.468;9.124;2024-01-27T05:48:49;64.45;;;32.58;;
45694;SDS011;31408;45.468;9.124;2024-01-27T05:51:16;61.00;;;30.98;;
45694;SDS011;31408;45.468;9.124;2024-01-27T05:53:41;57.63;;;28.25;;
45694;SDS011;31408;45.468;9.124;2024-01-27T05:56:06;51.85;;;29.67;;
45694;SDS011;31408;45.468;9.124;2024-01-27T05:58:32;48.83;;;28.67;;
45694;SDS011;31408;45.468;9.124;2024-01-27T06:00:57;58.55;;;29.63;;
45694;SDS011;31408;45.468;9.124;2024-01-27T06:03:22;57.58;;;30.15;;
45694;SDS011;31408;45.468;9.124;2024-01-27T06:05:48;52.90;;;31.50;;
45694;SDS011;31408;45.468;9.124;2024-01-27T06:08:13;55.67;;;32.50;;
45694;SDS011;31408;45.468;9.124;2024-01-27T06:10:38;47.72;;;28.83;;
45694;SDS011;31408;45.468;9.124;2024-01-27T06:13:04;60.42;;;31.15;;
45694;SDS011;31408;45.468;9.124;2024-01-27T06:15:29;57.42;;;31.77;;
45694;SDS011;31408;45.468;9.124;2024-01-27T06:17:55;56.92;;;31.27;;
45694;SDS011;31408;45.468;9.124;2024-01-27T06:20:20;52.78;;;30.70;;
45694;SDS011;31408;45.468;9.124;2024-01-27T06:22:46;59.55;;;31.38;;
45694;SDS011;31408;45.468;9.124;2024-01-27T06:25:11;53.20;;;33.25;;
45694;SDS011;31408;45.468;9.124;2024-01-27T06:27:37;63.90;;;32.80;;
45694;SDS011;31408;45.468;9.124;2024-01-27T06:30:03;56.95;;;31.73;;
45694;SDS011;31408;45.468;9.124;2024-01-27T06:32:29;58.47;;;31.85;;
45694;SDS011;31408;45.468;9.124;2024-01-27T06:34:54;59.25;;;31.35;;
45694;SDS011;31408;45.468;9.124;2024-01-27T06:37:20;57.50;;;32.75;;
45694;SDS011;31408;45.468;9.124;2024-01-27T06:39:45;58.03;;;31.98;;
45694;SDS011;31408;45.468;9.124;2024-01-27T06:42:10;61.03;;;33.13;;
45694;SDS011;31408;45.468;9.124;2024-01-27T06:44:35;57.72;;;28.95;;
45694;SDS011;31408;45.468;9.124;2024-01-27T06:47:01;54.33;;;30.02;;
45694;SDS011;31408;45.468;9.124;2024-01-27T06:49:26;50.67;;;28.83;;
45694;SDS011;31408;45.468;9.124;2024-01-27T06:51:57;60.95;;;32.00;;
45694;SDS011;31408;45.468;9.124;2024-01-27T06:54:22;55.70;;;32.03;;
45694;SDS011;31408;45.468;9.124;2024-01-27T06:56:47;60.95;;;32.85;;
45694;SDS011;31408;45.468;9.124;2024-01-27T06:59:12;53.78;;;30.13;;
45694;SDS011;31408;45.468;9.124;2024-01-27T07:01:38;55.92;;;30.50;;
45694;SDS011;31408;45.468;9.124;2024-01-27T07:04:03;60.35;;;36.22;;
45694;SDS011;31408;45.468;9.124;2024-01-27T07:06:30;62.90;;;31.33;;
45694;SDS011;31408;45.468;9.124;2024-01-27T07:08:55;60.38;;;35.60;;
45694;SDS011;31408;45.468;9.124;2024-01-27T07:11:31;53.03;;;29.75;;
45694;SDS011;31408;45.468;9.124;2024-01-27T07:13:56;58.78;;;32.65;;
45694;SDS011;31408;45.468;9.124;2024-01-27T07:16:21;71.05;;;37.55;;
45694;SDS011;31408;45.468;9.124;2024-01-27T07:18:47;57.38;;;33.42;;
45694;SDS011;31408;45.468;9.124;2024-01-27T07:21:15;53.65;;;31.40;;
45694;SDS011;31408;45.468;9.124;2024-01-27T07:23:42;56.53;;;30.90;;
45694;SDS011;31408;45.468;9.124;2024-01-27T07:26:09;65.93;;;33.28;;
45694;SDS011;31408;45.468;9.124;2024-01-27T07:28:34;57.47;;;29.02;;
45694;SDS011;31408;45.468;9.124;2024-01-27T07:31:00;66.43;;;35.85;;
45694;SDS011;31408;45.468;9.124;2024-01-27T07:33:25;76.22;;;36.63;;
45694;SDS011;31408;45.468;9.124;2024-01-27T07:35:51;57.53;;;31.75;;
45694;SDS011;31408;45.468;9.124;2024-01-27T07:38:16;59.75;;;32.67;;
45694;SDS011;31408;45.468;9.124;2024-01-27T07:40:46;65.57;;;35.50;;
45694;SDS011;31408;45.468;9.124;2024-01-27T07:43:12;64.28;;;36.13;;
45694;SDS011;31408;45.468;9.124;2024-01-27T07:45:37;57.55;;;31.15;;
45694;SDS011;31408;45.468;9.124;2024-01-27T07:48:02;54.42;;;29.25;;
45694;SDS011;31408;45.468;9.124;2024-01-27T07:50:28;68.18;;;34.03;;
45694;SDS011;31408;45.468;9.124;2024-01-27T07:52:53;66.43;;;33.83;;
45694;SDS011;31408;45.468;9.124;2024-01-27T07:55:19;59.00;;;33.50;;
45694;SDS011;31408;45.468;9.124;2024-01-27T07:57:44;61.58;;;34.75;;
45694;SDS011;31408;45.468;9.124;2024-01-27T08:00:10;55.38;;;33.92;;
45694;SDS011;31408;45.468;9.124;2024-01-27T08:02:35;62.83;;;33.47;;
45694;SDS011;31408;45.468;9.124;2024-01-27T08:05:00;61.20;;;35.20;;
45694;SDS011;31408;45.468;9.124;2024-01-27T08:07:27;56.28;;;30.67;;
45694;SDS011;31408;45.468;9.124;2024-01-27T08:09:53;65.28;;;30.63;;
45694;SDS011;31408;45.468;9.124;2024-01-27T08:12:18;61.47;;;35.17;;
45694;SDS011;31408;45.468;9.124;2024-01-27T08:14:44;58.72;;;30.48;;
45694;SDS011;31408;45.468;9.124;2024-01-27T08:17:09;68.55;;;32.75;;
45694;SDS011;31408;45.468;9.124;2024-01-27T08:19:34;61.83;;;28.75;;
45694;SDS011;31408;45.468;9.124;2024-01-27T08:22:00;74.80;;;36.03;;
45694;SDS011;31408;45.468;9.124;2024-01-27T08:24:25;63.20;;;33.80;;
45694;SDS011;31408;45.468;9.124;2024-01-27T08:26:51;62.00;;;33.20;;
45694;SDS011;31408;45.468;9.124;2024-01-27T08:29:16;73.95;;;34.88;;
45694;SDS011;31408;45.468;9.124;2024-01-27T08:31:46;65.70;;;36.95;;
45694;SDS011;31408;45.468;9.124;2024-01-27T08:34:12;67.40;;;34.75;;
45694;SDS011;31408;45.468;9.124;2024-01-27T08:36:37;62.17;;;34.92;;
45694;SDS011;31408;45.468;9.124;2024-01-27T08:39:03;58.95;;;32.58;;
45694;SDS011;31408;45.468;9.124;2024-01-27T08:41:29;60.35;;;33.30;;
45694;SDS011;31408;45.468;9.124;2024-01-27T08:43:54;61.65;;;33.85;;
45694;SDS011;31408;45.468;9.124;2024-01-27T08:46:20;60.55;;;32.65;;
45694;SDS011;31408;45.468;9.124;2024-01-27T08:48:47;68.00;;;32.15;;
45694;SDS011;31408;45.468;9.124;2024-01-27T08:51:12;69.30;;;33.67;;
45694;SDS011;31408;45.468;9.124;2024-01-27T08:53:38;71.03;;;34.70;;
45694;SDS011;31408;45.468;9.124;2024-01-27T08:56:03;57.85;;;28.83;;
45694;SDS011;31408;45.468;9.124;2024-01-27T08:58:29;60.38;;;32.65;;
45694;SDS011;31408;45.468;9.124;2024-01-27T09:00:54;67.25;;;32.58;;
45694;SDS011;31408;45.468;9.124;2024-01-27T09:03:19;62.40;;;32.03;;
45694;SDS011;31408;45.468;9.124;2024-01-27T09:05:48;67.32;;;35.42;;
45694;SDS011;31408;45.468;9.124;2024-01-27T09:08:14;65.20;;;35.88;;
45694;SDS011;31408;45.468;9.124;2024-01-27T09:10:39;73.97;;;37.53;;
45694;SDS011;31408;45.468;9.124;2024-01-27T09:13:04;62.17;;;32.13;;
45694;SDS011;31408;45.468;9.124;2024-01-27T09:15:30;58.55;;;30.08;;
45694;SDS011;31408;45.468;9.124;2024-01-27T09:17:55;49.83;;;29.63;;
45694;SDS011;31408;45.468;9.124;2024-01-27T09:20:21;50.20;;;29.85;;
45694;SDS011;31408;45.468;9.124;2024-01-27T09:22:47;51.58;;;29.80;;
45694;SDS011;31408;45.468;9.124;2024-01-27T09:25:13;62.58;;;27.40;;
45694;SDS011;31408;45.468;9.124;2024-01-27T09:27:39;50.97;;;29.13;;
45694;SDS011;31408;45.468;9.124;2024-01-27T09:30:04;57.05;;;29.58;;
45694;SDS011;31408;45.468;9.124;2024-01-27T09:32:30;57.13;;;28.30;;
45694;SDS011;31408;45.468;9.124;2024-01-27T09:34:55;57.25;;;33.90;;
45694;SDS011;31408;45.468;9.124;2024-01-27T09:37:21;49.70;;;27.80;;
45694;SDS011;31408;45.468;9.124;2024-01-27T09:39:46;51.08;;;26.05;;
45694;SDS011;31408;45.468;9.124;2024-01-27T09:42:12;52.53;;;25.75;;
45694;SDS011;31408;45.468;9.124;2024-01-27T09:44:38;42.55;;;23.42;;
45694;SDS011;31408;45.468;9.124;2024-01-27T09:47:04;50.10;;;26.20;;
45694;SDS011;31408;45.468;9.124;2024-01-27T09:49:31;45.05;;;24.85;;
45694;SDS011;31408;45.468;9.124;2024-01-27T09:51:56;50.42;;;25.35;;
45694;SDS011;31408;45.468;9.124;2024-01-27T09:54:22;45.33;;;24.00;;
45694;SDS011;31408;45.468;9.124;2024-01-27T09:56:47;42.65;;;22.92;;
45694;SDS011;31408;45.468;9.124;2024-01-27T09:59:14;38.63;;;23.13;;
45694;SDS011;31408;45.468;9.124;2024-01-27T10:01:43;41.28;;;24.00;;
45694;SDS011;31408;45.468;9.124;2024-01-27T10:04:09;46.35;;;26.02;;
45694;SDS011;31408;45.468;9.124;2024-01-27T10:06:35;43.60;;;23.45;;
45694;SDS011;31408;45.468;9.124;2024-01-27T10:09:01;43.03;;;25.58;;
45694;SDS011;31408;45.468;9.124;2024-01-27T10:11:26;42.63;;;23.80;;
45694;SDS011;31408;45.468;9.124;2024-01-27T10:13:55;40.60;;;22.25;;
45694;SDS011;31408;45.468;9.124;2024-01-27T10:16:21;41.55;;;22.52;;
45694;SDS011;31408;45.468;9.124;2024-01-27T10:18:46;45.38;;;23.65;;
45694;SDS011;31408;45.468;9.124;2024-01-27T10:21:18;40.63;;;22.88;;
45694;SDS011;31408;45.468;9.124;2024-01-27T10:23:45;38.47;;;21.67;;
45694;SDS011;31408;45.468;9.124;2024-01-27T10:26:10;42.25;;;22.27;;
45694;SDS011;31408;45.468;9.124;2024-01-27T10:28:36;35.85;;;21.95;;
45694;SDS011;31408;45.468;9.124;2024-01-27T10:31:10;42.17;;;22.27;;
45694;SDS011;31408;45.468;9.124;2024-01-27T10:33:36;37.95;;;22.80;;
45694;SDS011;31408;45.468;9.124;2024-01-27T10:36:01;39.22;;;23.88;;
45694;SDS011;31408;45.468;9.124;2024-01-27T10:38:37;37.70;;;23.08;;
45694;SDS011;31408;45.468;9.124;2024-01-27T10:41:03;37.72;;;21.15;;
45694;SDS011;31408;45.468;9.124;2024-01-27T10:43:31;40.38;;;22.65;;
45694;SDS011;31408;45.468;9.124;2024-01-27T10:45:56;40.95;;;24.27;;
45694;SDS011;31408;45.468;9.124;2024-01-27T10:48:22;38.83;;;24.13;;
45694;SDS011;31408;45.468;9.124;2024-01-27T10:50:48;41.33;;;21.63;;
45694;SDS011;31408;45.468;9.124;2024-01-27T10:53:23;35.75;;;19.65;;
45694;SDS011;31408;45.468;9.124;2024-01-27T10:56:00;36.55;;;19.58;;
45694;SDS011;31408;45.468;9.124;2024-01-27T10:58:27;35.17;;;20.90;;
45694;SDS011;31408;45.468;9.124;2024-01-27T11:00:53;38.92;;;22.25;;
45694;SDS011;31408;45.468;9.124;2024-01-27T11:03:19;39.20;;;22.25;;
45694;SDS011;31408;45.468;9.124;2024-01-27T11:05:46;44.67;;;26.23;;
45694;SDS011;31408;45.468;9.124;2024-01-27T11:08:12;43.65;;;24.85;;
45694;SDS011;31408;45.468;9.124;2024-01-27T11:10:37;41.42;;;24.15;;
45694;SDS011;31408;45.468;9.124;2024-01-27T11:13:04;45.97;;;26.02;;
45694;SDS011;31408;45.468;9.124;2024-01-27T11:15:29;47.92;;;28.17;;
45694;SDS011;31408;45.468;9.124;2024-01-27T11:17:58;43.97;;;25.17;;
45694;SDS011;31408;45.468;9.124;2024-01-27T11:20:31;43.30;;;25.60;;
45694;SDS011;31408;45.468;9.124;2024-01-27T11:23:07;40.75;;;21.88;;
45694;SDS011;31408;45.468;9.124;2024-01-27T11:25:33;43.65;;;24.77;;
45694;SDS011;31408;45.468;9.124;2024-01-27T11:27:59;49.45;;;29.10;;
45694;SDS011;31408;45.468;9.124;2024-01-27T11:32:49;37.88;;;20.60;;
45694;SDS011;31408;45.468;9.124;2024-01-27T11:35:16;35.40;;;19.02;;
45694;SDS011;31408;45.468;9.124;2024-01-27T11:37:42;37.85;;;23.60;;
45694;SDS011;31408;45.468;9.124;2024-01-27T11:40:07;34.38;;;19.98;;
45694;SDS011;31408;45.468;9.124;2024-01-27T11:42:33;40.90;;;22.52;;
45694;SDS011;31408;45.468;9.124;2024-01-27T11:44:58;43.33;;;25.15;;
45694;SDS011;31408;45.468;9.124;2024-01-27T11:47:25;49.25;;;24.20;;
45694;SDS011;31408;45.468;9.124;2024-01-27T11:49:54;40.30;;;23.15;;
45694;SDS011;31408;45.468;9.124;2024-01-27T11:52:20;43.70;;;22.77;;
45694;SDS011;31408;45.468;9.124;2024-01-27T11:54:53;40.25;;;22.48;;
45694;SDS011;31408;45.468;9.124;2024-01-27T11:57:18;40.55;;;24.38;;
45694;SDS011;31408;45.468;9.124;2024-01-27T11:59:43;39.00;;;23.25;;
45694;SDS011;31408;45.468;9.124;2024-01-27T12:02:09;38.83;;;22.38;;
45694;SDS011;31408;45.468;9.124;2024-01-27T12:04:36;54.58;;;24.30;;
45694;SDS011;31408;45.468;9.124;2024-01-27T12:07:01;39.67;;;22.25;;
45694;SDS011;31408;45.468;9.124;2024-01-27T12:09:27;42.65;;;24.17;;
45694;SDS011;31408;45.468;9.124;2024-01-27T12:11:52;42.92;;;22.80;;
45694;SDS011;31408;45.468;9.124;2024-01-27T12:14:18;46.45;;;25.20;;
45694;SDS011;31408;45.468;9.124;2024-01-27T12:16:44;38.78;;;22.75;;
45694;SDS011;31408;45.468;9.124;2024-01-27T12:19:10;44.40;;;24.33;;
45694;SDS011;31408;45.468;9.124;2024-01-27T12:21:35;41.67;;;23.73;;
45694;SDS011;31408;45.468;9.124;2024-01-27T12:24:01;40.33;;;24.67;;
45694;SDS011;31408;45.468;9.124;2024-01-27T12:26:29;42.47;;;22.88;;
45694;SDS011;31408;45.468;9.124;2024-01-27T12:28:55;39.60;;;22.13;;
45694;SDS011;31408;45.468;9.124;2024-01-27T12:31:22;38.88;;;22.95;;
45694;SDS011;31408;45.468;9.124;2024-01-27T12:33:48;40.72;;;23.13;;
45694;SDS011;31408;45.468;9.124;2024-01-27T12:36:13;39.20;;;22.13;;
45694;SDS011;31408;45.468;9.124;2024-01-27T12:38:39;41.60;;;23.95;;
45694;SDS011;31408;45.468;9.124;2024-01-27T12:41:04;37.30;;;22.02;;
45694;SDS011;31408;45.468;9.124;2024-01-27T12:43:29;38.13;;;21.58;;
45694;SDS011;31408;45.468;9.124;2024-01-27T12:45:55;36.63;;;22.70;;
45694;SDS011;31408;45.468;9.124;2024-01-27T12:48:20;41.17;;;23.35;;
45694;SDS011;31408;45.468;9.124;2024-01-27T12:50:46;39.55;;;23.15;;
45694;SDS011;31408;45.468;9.124;2024-01-27T12:53:11;38.95;;;22.13;;
45694;SDS011;31408;45.468;9.124;2024-01-27T12:55:37;42.05;;;23.50;;
45694;SDS011;31408;45.468;9.124;2024-01-27T12:58:02;39.08;;;23.70;;
45694;SDS011;31408;45.468;9.124;2024-01-27T13:00:27;38.22;;;22.05;;
45694;SDS011;31408;45.468;9.124;2024-01-27T13:02:53;37.35;;;22.83;;
45694;SDS011;31408;45.468;9.124;2024-01-27T13:05:18;37.17;;;21.27;;
45694;SDS011;31408;45.468;9.124;2024-01-27T13:07:44;41.92;;;25.15;;
45694;SDS011;31408;45.468;9.124;2024-01-27T13:10:10;37.83;;;22.35;;
45694;SDS011;31408;45.468;9.124;2024-01-27T13:12:35;40.17;;;23.75;;
45694;SDS011;31408;45.468;9.124;2024-01-27T13:15:00;35.08;;;22.02;;
45694;SDS011;31408;45.468;9.124;2024-01-27T13:17:26;34.75;;;20.30;;
45694;SDS011;31408;45.468;9.124;2024-01-27T13:19:51;44.55;;;24.80;;
45694;SDS011;31408;45.468;9.124;2024-01-27T13:22:16;37.85;;;21.55;;
45694;SDS011;31408;45.468;9.124;2024-01-27T13:24:42;36.83;;;22.48;;
45694;SDS011;31408;45.468;9.124;2024-01-27T13:27:08;37.50;;;23.33;;
45694;SDS011;31408;45.468;9.124;2024-01-27T13:29:33;39.60;;;22.52;;
45694;SDS011;31408;45.468;9.124;2024-01-27T13:31:59;41.42;;;24.77;;
45694;SDS011;31408;45.468;9.124;2024-01-27T13:34:27;41.45;;;23.42;;
45694;SDS011;31408;45.468;9.124;2024-01-27T13:36:53;46.33;;;24.15;;
45694;SDS011;31408;45.468;9.124;2024-01-27T13:39:18;40.35;;;23.65;;
45694;SDS011;31408;45.468;9.124;2024-01-27T13:41:44;42.65;;;24.42;;
45694;SDS011;31408;45.468;9.124;2024-01-27T13:44:09;39.67;;;23.00;;
45694;SDS011;31408;45.468;9.124;2024-01-27T13:46:35;37.28;;;20.90;;
45694;SDS011;31408;45.468;9.124;2024-01-27T13:49:00;44.90;;;23.27;;
45694;SDS011;31408;45.468;9.124;2024-01-27T13:51:25;37.55;;;21.50;;
45694;SDS011;31408;45.468;9.124;2024-01-27T13:53:50;44.28;;;22.90;;
45694;SDS011;31408;45.468;9.124;2024-01-27T13:56:16;37.67;;;22.30;;
45694;SDS011;31408;45.468;9.124;2024-01-27T13:58:42;44.20;;;24.38;;
45694;SDS011;31408;45.468;9.124;2024-01-27T14:01:07;38.40;;;20.40;;
45694;SDS011;31408;45.468;9.124;2024-01-27T14:03:33;40.08;;;23.35;;
45694;SDS011;31408;45.468;9.124;2024-01-27T14:05:59;43.53;;;22.27;;
45694;SDS011;31408;45.468;9.124;2024-01-27T14:08:24;36.60;;;21.52;;
45694;SDS011;31408;45.468;9.124;2024-01-27T14:10:49;39.72;;;21.95;;
45694;SDS011;31408;45.468;9.124;2024-01-27T14:13:17;38.00;;;22.20;;
45694;SDS011;31408;45.468;9.124;2024-01-27T14:15:42;38.17;;;22.10;;